createdAt,value
2018-08-24T03:15:01.308Z,0.1
2018-08-24T03:17:01.066Z,0.2
2018-08-24T03:18:01.064Z,0.3
2018-08-24T03:20:01.474Z,0.4
2018-08-24T03:21:01.063Z,0.5
2018-08-24T03:23:01.080Z,0.6
2018-08-24T03:24:01.075Z,0.7
2018-08-24T03:25:01.293Z,0.9
2018-08-24T03:26:01.083Z,1.1
2018-08-24T03:27:01.083Z,1.3
2018-08-24T03:28:01.090Z,1.5
2018-08-24T03:29:01.077Z,1.9
2018-08-24T03:30:01.190Z,2.3
2018-08-24T03:31:01.087Z,2.7
2018-08-24T03:32:01.154Z,3.1
2018-08-24T03:33:01.084Z,3.7
2018-08-24T03:34:01.112Z,4.3
2018-08-24T03:35:01.264Z,5.0
2018-08-24T03:36:01.087Z,5.9
2018-08-24T03:37:01.086Z,6.9
2018-08-24T03:38:01.087Z,8.0
2018-08-24T03:39:01.118Z,9.3
2018-08-24T03:40:01.243Z,10.9
2018-08-24T03:41:01.086Z,12.7
2018-08-24T03:42:01.091Z,14.9
2018-08-24T03:43:01.088Z,17.5
2018-08-24T03:44:01.138Z,20.5
2018-08-24T03:45:01.197Z,24.0
2018-08-24T03:46:01.237Z,28.1
2018-08-24T03:47:01.160Z,33.0
2018-08-24T03:48:01.082Z,38.7
2018-08-24T03:49:01.089Z,45.5
2018-08-24T03:50:01.226Z,53.3
2018-08-24T03:51:01.067Z,62.5
2018-08-24T03:52:01.094Z,73.3
2018-08-24T03:53:01.145Z,85.9
2018-08-24T03:54:01.088Z,100.5
2018-08-24T03:55:01.242Z,117.5
2018-08-24T03:56:01.099Z,136.9
2018-08-24T03:57:01.096Z,159.1
2018-08-24T03:58:01.119Z,184.3
2018-08-24T03:59:01.066Z,212.7
2018-08-24T04:00:01.359Z,244.5
2018-08-24T04:01:01.097Z,279.9
2018-08-24T04:02:01.061Z,319.2
2018-08-24T04:03:01.063Z,363.1
2018-08-24T04:04:01.093Z,412.0
2018-08-24T04:05:01.209Z,465.5
2018-08-24T04:06:01.162Z,522.7
2018-08-24T04:07:01.135Z,583.5
2018-08-24T04:08:01.090Z,648.3
2018-08-24T04:09:01.068Z,718.1
2018-08-24T04:10:01.236Z,793.3
2018-08-24T04:11:01.091Z,874.5
2018-08-24T04:12:01.101Z,960.9
2018-08-24T04:13:01.093Z,1052.3
2018-08-24T04:14:01.104Z,1149.5
2018-08-24T04:15:01.204Z,1252.3
2018-08-24T04:16:01.092Z,1362.1
2018-08-24T04:17:01.073Z,1480.3
2018-08-24T04:18:01.091Z,1606.1
2018-08-24T04:19:01.097Z,1738.4
2018-08-24T04:20:01.235Z,1875.9
2018-08-24T04:21:01.092Z,2029.0
2018-08-24T04:22:01.061Z,2202.3
2018-08-24T04:23:01.093Z,2393.1
2018-08-24T04:24:01.069Z,2599.3
2018-08-24T04:25:01.234Z,2818.4
2018-08-24T04:27:01.081Z,3031.2
2018-08-24T04:28:01.077Z,3231.2
2018-08-24T04:29:01.052Z,3417.5
2018-08-24T04:30:01.047Z,3567.1
2018-08-24T04:31:01.280Z,3683.3
2018-08-24T04:32:01.081Z,3825.9
2018-08-24T04:33:01.080Z,4031.7
2018-08-24T04:34:01.083Z,4292.7
2018-08-24T04:35:01.239Z,4548.5
2018-08-24T04:36:01.228Z,4864.3
2018-08-24T04:37:01.047Z,5252.3
2018-08-24T04:38:01.048Z,5666.9
2018-08-24T04:39:01.052Z,6080.9
2018-08-24T04:40:01.091Z,6456.4
2018-08-24T04:41:01.192Z,6912.7
2018-08-24T04:42:01.054Z,7485.7
2018-08-24T04:43:01.050Z,8164.5
2018-08-24T04:44:01.053Z,8895.2
2018-08-24T04:45:01.080Z,9692.9
2018-08-24T04:46:01.199Z,10563.2
2018-08-24T04:47:01.050Z,11454.9
2018-08-24T04:48:01.084Z,12332.1
2018-08-24T04:49:01.051Z,13187.6
2018-08-24T04:50:01.090Z,14071.4
2018-08-24T04:51:01.222Z,14926.7
2018-08-24T04:52:01.082Z,15726.6
2018-08-24T04:53:01.086Z,16512.5
2018-08-24T04:54:01.052Z,17315.9
2018-08-24T04:55:01.058Z,18153.3
2018-08-24T04:56:01.261Z,18882.7
2018-08-24T04:57:01.058Z,19476.9
2018-08-24T04:58:01.085Z,19950.5
2018-08-24T04:59:01.067Z,20335.5
2018-08-24T05:00:01.158Z,20582.4
2018-08-24T05:01:01.237Z,20629.5
2018-08-24T05:02:01.055Z,20469.8
2018-08-24T05:03:01.054Z,20094.3
2018-08-24T05:04:01.091Z,19544.1
2018-08-24T05:05:01.060Z,18887.3
2018-08-24T05:06:01.291Z,18166.3
2018-08-24T05:07:01.112Z,17373.5
2018-08-24T05:08:01.059Z,16496.1
2018-08-24T05:09:01.057Z,15522.5
2018-08-24T05:10:01.059Z,14483.5
2018-08-24T05:11:01.200Z,13443.2
2018-08-24T05:12:01.093Z,12455.9
2018-08-24T05:13:01.091Z,11567.5
2018-08-24T05:14:01.068Z,10840.3
2018-08-24T05:15:01.092Z,10340.6
2018-08-24T05:16:01.257Z,10090.7
2018-08-24T05:17:01.067Z,10072.9
2018-08-24T05:18:01.091Z,10276.7
2018-08-24T05:19:01.096Z,10725.3
2018-08-24T05:20:01.065Z,11412.8
2018-08-24T05:21:01.234Z,12322.3
2018-08-24T05:22:01.059Z,13502.9
2018-08-24T05:23:01.094Z,14908.5
2018-08-24T05:24:01.063Z,16536.3
2018-08-24T05:25:06.094Z,18401.2
2018-08-24T05:26:01.240Z,20439.7
2018-08-24T05:27:01.061Z,22566.3
2018-08-24T05:28:01.127Z,24718.9
2018-08-24T05:29:01.092Z,26887.5
2018-08-24T05:30:01.093Z,29065.7
2018-08-24T05:31:01.228Z,31255.5
2018-08-24T05:32:01.058Z,33408.3
2018-08-24T05:33:01.060Z,35532.9
2018-08-24T05:34:01.095Z,37552.8
2018-08-24T05:35:01.058Z,39388.1
2018-08-24T05:36:01.200Z,41002.7
2018-08-24T05:37:01.062Z,42360.5
2018-08-24T05:38:01.062Z,43543.5
2018-08-24T05:39:01.095Z,44572.1
2018-08-24T05:40:06.101Z,45409.0
2018-08-24T05:41:01.199Z,46098.4
2018-08-24T05:42:01.059Z,46661.5
2018-08-24T05:43:01.097Z,47022.3
2018-08-24T05:44:01.068Z,47175.7
2018-08-24T05:45:01.101Z,47092.3
2018-08-24T05:46:01.233Z,46909.9
2018-08-24T05:47:01.097Z,46695.9
2018-08-24T05:48:01.061Z,46432.3
2018-08-24T05:49:01.066Z,46168.3
2018-08-24T05:50:01.101Z,45987.5
2018-08-24T05:52:01.187Z,45890.5
2018-08-24T05:53:01.084Z,45859.9
2018-08-24T05:54:01.049Z,45958.0
2018-08-24T05:55:01.054Z,46101.1
2018-08-24T05:56:01.107Z,46329.8
2018-08-24T05:57:01.203Z,46638.1
2018-08-24T05:58:01.088Z,46955.4
2018-08-24T05:59:01.082Z,47376.1
2018-08-24T06:00:01.086Z,47865.5
2018-08-24T06:01:01.111Z,48470.4
2018-08-24T06:02:01.221Z,49107.0
2018-08-24T06:03:01.055Z,49748.6
2018-08-24T06:04:01.087Z,50490.3
2018-08-24T06:05:01.092Z,51299.5
2018-08-24T06:06:01.128Z,52222.3
2018-08-24T06:07:01.198Z,53292.8
2018-08-24T06:08:01.055Z,54364.3
2018-08-24T06:09:01.094Z,55477.8
2018-08-24T06:10:01.096Z,56533.9
2018-08-24T06:11:01.083Z,57506.5
2018-08-24T06:12:01.229Z,58380.8
2018-08-24T06:13:01.057Z,59247.6
2018-08-24T06:14:01.155Z,60107.6
2018-08-24T06:15:01.094Z,60970.9
2018-08-24T06:16:01.186Z,61816.8
2018-08-24T06:17:01.282Z,62619.6
2018-08-24T06:18:01.093Z,63401.6
2018-08-24T06:19:01.090Z,64093.6
2018-08-24T06:20:01.092Z,64706.5
2018-08-24T06:21:06.181Z,65139.4
2018-08-24T06:22:01.421Z,65361.1
2018-08-24T06:23:01.090Z,65535.0
2018-08-24T06:30:01.094Z,65535.0
2018-08-24T06:38:01.242Z,65418.9
2018-08-24T06:39:01.092Z,65083.9
2018-08-24T06:40:01.061Z,64629.0
2018-08-24T06:41:01.094Z,64181.3
2018-08-24T06:42:06.074Z,63814.3
2018-08-24T06:43:01.206Z,63509.1
2018-08-24T06:44:01.061Z,63258.7
2018-08-24T06:45:01.060Z,63023.9
2018-08-24T06:46:01.061Z,62769.6
2018-08-24T06:47:06.154Z,62481.1
2018-08-24T06:48:01.211Z,62107.9
2018-08-24T06:49:01.099Z,61655.1
2018-08-24T06:50:01.095Z,61217.0
2018-08-24T06:51:01.098Z,60847.6
2018-08-24T06:52:06.094Z,60455.7
2018-08-24T06:53:01.314Z,60108.3
2018-08-24T06:54:01.231Z,60127.8
2018-08-24T06:55:01.064Z,60582.7
2018-08-24T06:56:01.099Z,61030.4
2018-08-24T06:57:06.102Z,61397.3
2018-08-24T06:58:01.239Z,61702.6
2018-08-24T06:59:01.096Z,61953.0
2018-08-24T07:00:01.065Z,62187.8
2018-08-24T07:01:01.099Z,62442.1
2018-08-24T07:02:06.114Z,62730.5
2018-08-24T07:03:01.214Z,63103.8
2018-08-24T07:04:01.102Z,63556.6
2018-08-24T07:05:01.100Z,63994.7
2018-08-24T07:06:01.067Z,64364.1
2018-08-24T07:07:06.103Z,64756.0
2018-08-24T07:08:01.248Z,65219.5
2018-08-24T07:09:01.100Z,65535.0
2018-08-24T07:15:01.069Z,65535.0
2018-08-24T07:30:01.092Z,65535.0
2018-08-24T07:38:01.235Z,65238.4
2018-08-24T07:39:01.103Z,64608.1
2018-08-24T07:40:01.100Z,63734.5
2018-08-24T07:41:01.096Z,62810.7
2018-08-24T07:42:06.104Z,61946.3
2018-08-24T07:43:01.208Z,61187.3
2018-08-24T07:44:01.098Z,60587.7
2018-08-24T07:45:01.104Z,60147.5
2018-08-24T07:46:01.072Z,59816.6
2018-08-24T07:47:06.097Z,59597.8
2018-08-24T07:48:01.497Z,59565.3
2018-08-24T07:53:01.237Z,59861.9
2018-08-24T07:54:01.102Z,60492.2
2018-08-24T07:55:01.102Z,61365.8
2018-08-24T07:56:01.072Z,62289.7
2018-08-24T07:57:06.175Z,63154.0
2018-08-24T07:58:01.373Z,63913.1
2018-08-24T07:59:01.070Z,64512.7
2018-08-24T08:00:01.100Z,64952.9
2018-08-24T08:01:01.075Z,65283.7
2018-08-24T08:02:01.271Z,65502.5
2018-08-24T08:03:01.215Z,65535.0
2018-08-24T08:15:05.844Z,65535.0
2018-08-24T08:30:01.061Z,65535.0
2018-08-24T08:45:01.238Z,65535.0
2018-08-24T09:00:01.276Z,65535.0
2018-08-24T09:15:01.270Z,65535.0
2018-08-24T09:30:01.269Z,65535.0
2018-08-24T09:45:01.266Z,65535.0
2018-08-24T09:52:01.272Z,65388.8
2018-08-24T09:53:01.094Z,65030.3
2018-08-24T09:54:01.068Z,64289.9
2018-08-24T09:55:01.063Z,63525.0
2018-08-24T09:56:01.107Z,62672.3
2018-08-24T09:57:01.330Z,61658.3
2018-08-24T09:58:01.063Z,60627.3
2018-08-24T09:59:01.097Z,59679.5
2018-08-24T10:00:01.069Z,58879.0
2018-08-24T10:01:01.065Z,58184.5
2018-08-24T10:02:01.210Z,57582.5
2018-08-24T10:03:01.066Z,56982.1
2018-08-24T10:04:01.129Z,56375.3
2018-08-24T10:05:01.068Z,55799.2
2018-08-24T10:06:01.101Z,55394.5
2018-08-24T10:07:01.240Z,55158.5
2018-08-24T10:08:01.097Z,55374.3
2018-08-24T10:09:01.142Z,56114.7
2018-08-24T10:11:01.047Z,56879.6
2018-08-24T10:12:01.223Z,57732.3
2018-08-24T10:13:01.051Z,58746.3
2018-08-24T10:14:01.088Z,59777.3
2018-08-24T10:15:01.082Z,60725.1
2018-08-24T10:16:01.083Z,61525.6
2018-08-24T10:17:01.192Z,62220.1
2018-08-24T10:18:01.055Z,62822.1
2018-08-24T10:19:01.087Z,63422.5
2018-08-24T10:20:01.083Z,64029.3
2018-08-24T10:21:01.092Z,64605.4
2018-08-24T10:22:01.190Z,65010.1
2018-08-24T10:23:01.091Z,65392.3
2018-08-24T10:24:01.082Z,65535.0
2018-08-24T10:30:01.348Z,65535.0
2018-08-24T10:45:01.230Z,65535.0
2018-08-24T11:00:01.372Z,65535.0
2018-08-24T11:15:01.239Z,65535.0
2018-08-24T11:30:01.287Z,65535.0
2018-08-24T11:45:01.319Z,65535.0
2018-08-24T12:00:01.279Z,65535.0
2018-08-24T12:15:01.274Z,65535.0
2018-08-24T12:30:01.346Z,65535.0
2018-08-24T12:45:01.192Z,65535.0
2018-08-24T13:00:01.382Z,65535.0
2018-08-24T13:15:01.205Z,65535.0
2018-08-24T13:30:01.474Z,65535.0
2018-08-24T13:45:01.224Z,65244.1
2018-08-24T13:46:01.081Z,64754.7
2018-08-24T13:47:01.076Z,63804.2
2018-08-24T13:48:01.049Z,62471.1
2018-08-24T13:49:01.056Z,60952.9
2018-08-24T13:50:01.189Z,59649.3
2018-08-24T14:00:01.436Z,59940.2
2018-08-24T14:01:01.085Z,60429.6
2018-08-24T14:02:01.086Z,61380.1
2018-08-24T14:03:01.081Z,62713.1
2018-08-24T14:04:06.087Z,64231.3
2018-08-24T14:05:01.228Z,65535.0
2018-08-24T14:15:01.354Z,65535.0
2018-08-24T14:30:01.287Z,65535.0
2018-08-24T14:45:01.221Z,65535.0
2018-08-24T15:00:01.255Z,65535.0
2018-08-24T15:15:01.193Z,65535.0
2018-08-24T15:30:01.485Z,65535.0
2018-08-24T15:31:01.045Z,65428.2
2018-08-24T15:32:01.045Z,64830.7
2018-08-24T15:33:01.106Z,64364.7
2018-08-24T15:45:01.253Z,64364.7
2018-08-24T15:46:01.091Z,64471.5
2018-08-24T15:47:01.087Z,65069.0
2018-08-24T15:48:01.100Z,65535.0
2018-08-24T16:00:01.381Z,65535.0
2018-08-24T16:04:01.090Z,65322.5
2018-08-24T16:11:01.329Z,64922.3
2018-08-24T16:12:01.088Z,64060.3
2018-08-24T16:13:06.065Z,63098.7
2018-08-24T16:14:01.096Z,62059.8
2018-08-24T16:15:01.061Z,61090.1
2018-08-24T16:16:01.230Z,60594.6
2018-08-24T16:17:01.090Z,60032.1
2018-08-24T16:18:01.135Z,59591.1
2018-08-24T16:19:01.089Z,59017.7
2018-08-24T16:20:01.058Z,57794.7
2018-08-24T16:21:01.235Z,56449.4
2018-08-24T16:22:01.130Z,55209.0
2018-08-24T16:23:01.089Z,53948.3
2018-08-24T16:24:01.059Z,52544.6
2018-08-24T16:25:01.057Z,51051.2
2018-08-24T16:26:01.230Z,49934.5
2018-08-24T16:27:01.092Z,49290.6
2018-08-24T16:28:01.117Z,48766.6
2018-08-24T16:29:01.065Z,48303.7
2018-08-24T16:30:01.068Z,47733.7
2018-08-24T16:31:01.325Z,46663.3
2018-08-24T16:33:06.087Z,45593.3
2018-08-24T16:34:01.080Z,44414.6
2018-08-24T16:35:01.091Z,43580.5
2018-08-24T16:36:01.078Z,43221.6
2018-08-24T16:37:01.341Z,43032.8
2018-08-24T16:38:06.047Z,42790.0
2018-08-24T16:39:01.080Z,42622.7
2018-08-24T16:40:01.055Z,42609.3
2018-08-24T16:41:01.084Z,42691.6
2018-08-24T16:42:01.224Z,42781.7
2018-08-24T16:43:06.054Z,42941.5
2018-08-24T16:44:06.082Z,43263.1
2018-08-24T16:45:01.080Z,43664.5
2018-08-24T16:46:01.084Z,44038.7
2018-08-24T16:47:01.289Z,44433.7
2018-08-24T16:48:01.092Z,45111.7
2018-08-24T16:49:06.085Z,46217.7
2018-08-24T16:50:01.090Z,47754.9
2018-08-24T16:51:01.084Z,48978.3
2018-08-24T16:52:01.223Z,49612.1
2018-08-24T16:53:01.050Z,49969.1
2018-08-24T16:54:06.092Z,50252.6
2018-08-24T16:55:01.087Z,50609.3
2018-08-24T16:56:01.085Z,50986.6
2018-08-24T16:57:01.198Z,51311.6
2018-08-24T16:58:01.103Z,51497.3
2018-08-24T16:59:06.087Z,51588.5
2018-08-24T17:00:01.058Z,51652.1
2018-08-24T17:01:01.090Z,51760.2
2018-08-24T17:02:01.231Z,51880.8
2018-08-24T17:03:01.055Z,51575.0
2018-08-24T17:04:06.090Z,50520.1
2018-08-24T17:05:01.091Z,48794.5
2018-08-24T17:06:01.088Z,47249.7
2018-08-24T17:07:01.261Z,46195.7
2018-08-24T17:08:01.060Z,45258.7
2018-08-24T17:09:06.094Z,44195.3
2018-08-24T17:10:01.059Z,43012.5
2018-08-24T17:11:01.067Z,41820.1
2018-08-24T17:12:01.228Z,40832.4
2018-08-24T17:13:01.149Z,40286.9
2018-08-24T17:14:06.095Z,40079.3
2018-08-24T17:15:01.090Z,39770.7
2018-08-24T17:16:01.093Z,39406.8
2018-08-24T17:17:01.210Z,38729.5
2018-08-24T17:18:01.091Z,37956.9
2018-08-24T17:19:01.084Z,37273.8
2018-08-24T17:20:01.100Z,36706.7
2018-08-24T17:21:01.097Z,36162.7
2018-08-24T17:22:01.237Z,35546.3
2018-08-24T17:24:01.075Z,34971.9
2018-08-24T17:25:01.105Z,34541.9
2018-08-24T17:26:01.046Z,34134.7
2018-08-24T17:27:01.045Z,33705.2
2018-08-24T17:28:01.220Z,33139.5
2018-08-24T17:29:01.103Z,32196.7
2018-08-24T17:30:01.045Z,30848.9
2018-08-24T17:31:01.082Z,29588.4
2018-08-24T17:32:01.046Z,28439.7
2018-08-24T17:33:01.239Z,27634.4
2018-08-24T17:34:01.070Z,27136.6
2018-08-24T17:35:01.046Z,26867.7
2018-08-24T17:36:01.081Z,26702.7
2018-08-24T17:37:01.075Z,26582.1
2018-08-24T17:38:01.247Z,26641.9
2018-08-24T17:39:01.080Z,26819.5
2018-08-24T17:40:01.080Z,26906.1
2018-08-24T17:41:01.057Z,26880.1
2018-08-24T17:42:01.106Z,26809.3
2018-08-24T17:43:01.231Z,26692.5
2018-08-24T17:44:01.084Z,26503.8
2018-08-24T17:45:01.082Z,26231.2
2018-08-24T17:46:01.049Z,25871.2
2018-08-24T17:47:01.110Z,25416.1
2018-08-24T17:48:01.304Z,24877.0
2018-08-24T17:49:01.053Z,24289.8
2018-08-24T17:50:01.082Z,23641.6
2018-08-24T17:51:01.086Z,22967.4
2018-08-24T17:52:01.152Z,22274.2
2018-08-24T17:53:01.193Z,21481.7
2018-08-24T17:54:01.082Z,20594.7
2018-08-24T17:55:01.052Z,19751.1
2018-08-24T17:56:01.116Z,18987.9
2018-08-24T17:57:01.082Z,18238.0
2018-08-24T17:58:01.290Z,17497.1
2018-08-24T17:59:01.082Z,16783.7
2018-08-24T18:00:01.090Z,16092.5
2018-08-24T18:01:01.113Z,15433.5
2018-08-24T18:02:01.091Z,14805.0
2018-08-24T18:03:01.235Z,14196.9
2018-08-24T18:04:01.092Z,13611.3
2018-08-24T18:05:01.093Z,13056.7
2018-08-24T18:06:01.124Z,12531.4
2018-08-24T18:07:01.054Z,12038.4
2018-08-24T18:08:01.227Z,11573.5
2018-08-24T18:09:01.153Z,11136.7
2018-08-24T18:10:01.088Z,10728.1
2018-08-24T18:11:01.115Z,10341.8
2018-08-24T18:12:01.091Z,9968.5
2018-08-24T18:13:01.289Z,9607.3
2018-08-24T18:14:01.067Z,9257.1
2018-08-24T18:15:01.142Z,8920.1
2018-08-24T18:16:01.091Z,8585.7
2018-08-24T18:17:01.088Z,8250.1
2018-08-24T18:18:01.204Z,7913.7
2018-08-24T18:19:01.094Z,7577.0
2018-08-24T18:20:01.093Z,7238.4
2018-08-24T18:21:01.099Z,6895.8
2018-08-24T18:22:01.090Z,6548.6
2018-08-24T18:23:01.227Z,6196.8
2018-08-24T18:24:01.060Z,5844.3
2018-08-24T18:25:01.091Z,5495.7
2018-08-24T18:26:01.092Z,5154.1
2018-08-24T18:27:01.140Z,4821.3
2018-08-24T18:29:01.368Z,4480.6
2018-08-24T18:30:01.096Z,4148.2
2018-08-24T18:31:01.081Z,3823.0
2018-08-24T18:32:01.073Z,3505.3
2018-08-24T18:33:01.049Z,3194.3
2018-08-24T18:34:01.230Z,2889.9
2018-08-24T18:35:01.152Z,2588.1
2018-08-24T18:36:01.077Z,2294.3
2018-08-24T18:37:01.108Z,2017.0
2018-08-24T18:38:01.080Z,1757.4
2018-08-24T18:39:01.233Z,1516.3
2018-08-24T18:40:01.079Z,1291.5
2018-08-24T18:41:01.089Z,1082.1
2018-08-24T18:42:01.051Z,887.5
2018-08-24T18:43:01.047Z,707.9
2018-08-24T18:44:01.229Z,559.6
2018-08-24T18:45:01.085Z,429.5
2018-08-24T18:46:01.082Z,319.7
2018-08-24T18:47:01.051Z,231.9
2018-08-24T18:48:01.096Z,166.8
2018-08-24T18:49:01.192Z,121.7
2018-08-24T18:50:01.085Z,97.6
2018-08-24T18:51:01.059Z,86.7
2018-08-24T18:52:01.086Z,79.7
2018-08-24T18:53:01.085Z,73.4
2018-08-24T18:54:01.226Z,67.1
2018-08-24T18:55:01.086Z,60.5
2018-08-24T18:56:01.086Z,54.0
2018-08-24T18:57:01.090Z,47.9
2018-08-24T18:58:01.088Z,42.0
2018-08-24T18:59:01.201Z,36.5
2018-08-24T19:00:01.092Z,31.6
2018-08-24T19:01:01.129Z,27.3
2018-08-24T19:02:01.095Z,23.5
2018-08-24T19:03:01.054Z,20.3
2018-08-24T19:04:01.358Z,17.6
2018-08-24T19:05:01.087Z,15.3
2018-08-24T19:06:06.057Z,13.4
2018-08-24T19:07:01.091Z,11.8
2018-08-24T19:08:01.089Z,10.5
2018-08-24T19:09:01.228Z,9.5
2018-08-24T19:10:01.090Z,8.6
2018-08-24T19:11:01.123Z,7.9
2018-08-24T19:12:01.062Z,7.4
2018-08-24T19:13:01.089Z,7.0
2018-08-24T19:14:01.448Z,6.7
2018-08-24T19:15:01.059Z,6.3
2018-08-24T19:16:01.150Z,6.1
2018-08-24T19:17:01.057Z,5.8
2018-08-24T19:18:01.059Z,5.5
2018-08-24T19:19:01.236Z,5.3
2018-08-24T19:20:01.093Z,5.0
2018-08-24T19:21:01.096Z,4.7
2018-08-24T19:22:01.059Z,4.3
2018-08-24T19:23:01.092Z,4.0
2018-08-24T19:24:01.364Z,3.7
2018-08-24T19:25:01.068Z,3.4
2018-08-24T19:27:01.100Z,3.1
2018-08-24T19:28:01.079Z,2.8
2018-08-24T19:29:01.183Z,2.5
2018-08-24T19:30:01.075Z,2.3
2018-08-24T19:31:01.077Z,2.1
2018-08-24T19:32:01.109Z,1.9
2018-08-24T19:33:01.078Z,1.7
2018-08-24T19:34:01.218Z,1.5
2018-08-24T19:35:01.090Z,1.3
2018-08-24T19:36:01.085Z,1.1
2018-08-24T19:37:01.112Z,0.9
2018-08-24T19:38:01.056Z,0.8
2018-08-24T19:39:01.272Z,0.7
2018-08-24T19:40:01.079Z,0.5
2018-08-24T19:42:06.054Z,0.4
2018-08-24T19:43:01.094Z,0.3
2018-08-24T19:45:01.233Z,0.2
2018-08-24T19:46:06.087Z,0.1
